Station: ADELAIDE KENT TOWN

  Atmospheric Gas Attenuation - ITU Rec 676-11   --------------- db/100km ---------------
Date Time Temp RH % AH g/m3 Dew Point Wind Direction Speed kph Gust kph Barometer mB Rainfall Since 9am 24GHz 47GHz 76GHz 122GHz 134GHz 241GHz
13 06:30 4.9 97 6.55 4.4 0 0 1027.4 0 15.6 25.6 36.3 94.7 82.1 279.9
13 06:20 5.1 97 6.64 4.6 0 0 1026.8 0 15.8 25.7 36.5 95.4 83.1 283.4
13 06:10 5 97 6.6 4.5 0 0 1026.8 0 15.7 25.6 36.4 95.1 82.6 281.9
13 06:00 5.1 95 6.5 4.4 0 0 1027.2 0 15.5 25.5 35.9 93.9 81.2 276.7
13 05:50 5 95 6.46 4.3 0 0 1026.8 0 15.4 25.4 35.8 93.5 80.7 275.0
13 05:40 5 97 6.6 4.5 0 0 1026.7 0 15.7 25.6 36.4 95.1 82.6 281.8
13 05:30 5.2 95 6.55 4.5 0 0 1027 0 15.6 25.5 36.1 94.3 81.7 278.8
13 05:20 5.5 95 6.68 4.8 0 0 1026.4 0 15.8 25.6 36.5 95.3 83.2 283.8
13 05:10 5.3 97 6.73 4.8 0 0 1026.3 0 15.9 25.8 36.8 96.1 84.1 287.0
13 04:50 5.4 95 6.63 4.7 0 0 1026.1 0 15.7 25.6 36.3 94.8 82.6 281.7
13 04:40 5.4 97 6.77 4.9 0 0 1026.1 0 16.0 25.8 36.9 96.4 84.5 288.5
13 04:30 5.6 95 6.72 4.9 0 0 1026.4 0 15.9 25.7 36.6 95.6 83.6 285.4
13 04:20 5.8 94 6.74 4.9 0 0 1026 0 15.9 25.6 36.6 95.6 83.7 285.6
13 04:10 5.9 94 6.78 5 0 0 1026 0 16.0 25.7 36.7 95.9 84.1 287.1
13 04:00 5.9 95 6.85 5.2 0 0 1026.4 0 16.2 25.8 37.0 96.7 85.1 290.6
13 03:50 6 95 6.9 5.3 0 0 1026 0 16.3 25.8 37.2 97.1 85.7 292.6
13 03:40 6.1 95 6.94 5.4 0 0 1026 0 16.4 25.9 37.3 97.5 86.1 294.2
13 03:30 6.2 95 6.99 5.5 0 0 1026.4 0 16.5 25.9 37.5 97.9 86.7 296.3
13 03:20 6.2 95 6.99 5.5 0 0 1026 0 16.5 25.9 37.4 97.9 86.7 296.2
13 03:10 6.2 95 6.99 5.5 0 0 1026 0 16.5 25.9 37.4 97.9 86.7 296.2
13 03:00 6.2 95 6.99 5.5 0 0 1026.3 0 16.5 25.9 37.5 97.9 86.7 296.3
13 02:50 6.2 95 6.99 5.5 0 0 1025.9 0 16.5 25.9 37.4 97.9 86.7 296.2
13 02:40 6.4 95 7.08 5.7 0 0 1025.9 0 16.7 26.0 37.7 98.6 87.7 299.8
13 02:30 6.5 94 7.05 5.6 0 0 1026.2 0 16.6 26.0 37.6 98.2 87.2 298.1
13 02:20 6.3 95 7.04 5.6 0 0 1025.9 0 16.6 26.0 37.6 98.3 87.3 298.3
13 02:10 6.4 95 7.08 5.7 0 0 1025.8 0 16.7 26.0 37.7 98.6 87.7 299.8
13 02:00 6.5 95 7.13 5.8 0 0 1026.1 0 16.8 26.1 37.9 99.1 88.3 301.9
13 01:50 6.5 95 7.13 5.8 0 0 1025.7 0 16.8 26.1 37.9 99.1 88.3 301.8
13 01:40 6.6 95 7.18 5.9 0 0 1025.6 0 16.9 26.1 38.0 99.5 88.8 303.9
13 01:30 6.8 94 7.19 5.9 0 0 1026 0 16.9 26.1 38.0 99.4 88.8 303.7
13 01:20 6.8 95 7.27 6.1 0 0 1025.6 0 17.0 26.2 38.3 100.3 89.9 307.5
13 01:10 7 95 7.36 6.3 0 0 1025.5 0 17.2 26.3 38.6 101.0 90.9 311.1
13 01:00 7.2 94 7.38 6.3 0 0 1025.9 0 17.3 26.3 38.6 101.0 90.9 311.3
13 00:50 7.3 95 7.51 6.6 0 0 1025.5 0 17.5 26.5 39.1 102.3 92.6 317.2
13 00:40 7.6 94 7.58 6.7 0 0 1025.6 0 17.7 26.5 39.2 102.7 93.2 319.4
13 00:30 7.8 94 7.67 6.9 0 0 1026 0 17.9 26.6 39.5 103.5 94.3 323.1
13 00:20 7.9 94 7.72 7 0 0 1025.7 0 18.0 26.7 39.7 103.9 94.8 325.0
13 00:10 8.1 93 7.74 7 0 0 1025.6 0 18.0 26.6 39.7 103.9 94.9 325.2
13 00:00 8 94 7.77 7.1 2 7 1026 0 18.1 26.7 39.9 104.4 95.4 327.2
12 23:50 8.1 93 7.74 7 4 6 1025.6 0 18.0 26.6 39.7 103.9 94.9 325.2
12 23:40 7.7 96 7.79 7.1 4 6 1025.6 0 18.1 26.8 40.1 105.0 96.1 329.3
12 23:30 7.8 94 7.67 6.9 0 0 1026 0 17.9 26.6 39.5 103.5 94.3 323.1
12 23:20 7.8 93 7.59 6.7 0 0 1025.6 0 17.7 26.5 39.2 102.6 93.1 319.1
12 23:10 8 94 7.77 7.1 0 0 1025.5 0 18.1 26.7 39.8 104.3 95.4 327.0
12 23:00 8.2 94 7.88 7.3 0 0 1025.8 0 18.3 26.8 40.2 105.3 96.7 331.6
12 22:50 8.2 94 7.88 7.3 0 0 1025.4 0 18.3 26.8 40.2 105.3 96.7 331.5
12 22:40 8.3 93 7.84 7.2 0 0 1025.4 0 18.2 26.7 40.0 104.7 96.0 329.2
12 22:30 8.4 93 7.89 7.3 0 0 1025.7 0 18.3 26.8 40.2 105.2 96.6 331.3
12 22:20 8.4 93 7.89 7.3 0 0 1025.3 0 18.3 26.8 40.1 105.1 96.6 331.1
12 22:10 8.5 91 7.77 7.2 0 0 1025.2 0 18.0 26.5 39.6 103.6 94.8 324.8
12 22:00 8.6 91 7.82 7.3 0 0 1025.6 0 18.2 26.6 39.8 104.1 95.4 327.0
12 21:50 8.8 91 7.92 7.5 0 0 1025.2 0 18.4 26.7 40.1 104.9 96.5 330.9
12 21:40 9 90 7.94 7.5 0 0 1025.2 0 18.4 26.7 40.0 104.9 96.5 331.0
12 21:30 9.3 89 8 7.6 0 0 1025.6 0 18.5 26.7 40.2 105.2 97.0 332.7
12 21:20 9.5 89 8.1 7.8 0 0 1025.2 0 18.7 26.8 40.5 106.0 98.1 336.6
12 21:10 9.8 88 8.17 7.9 0 0 1025.2 0 18.8 26.8 40.6 106.4 98.7 338.7
12 21:00 9.9 89 8.31 8.2 0 4 1025.7 0 19.1 27.1 41.2 107.9 100.5 345.2
12 20:50 10.1 88 8.32 8.2 2 4 1025.2 0 19.2 27.0 41.1 107.7 100.4 344.7
12 20:40 9.9 88 8.22 8 7 11 1025.2 0 19.0 26.9 40.8 106.8 99.2 340.7
12 20:30 10.2 87 8.28 8.1 2 6 1025.5 0 19.1 26.9 40.9 107.1 99.7 342.4
12 20:20 10.3 87 8.33 8.2 2 6 1025.1 0 19.2 26.9 41.0 107.5 100.2 344.3
12 20:10 10.5 84 8.15 8 6 9 1024.9 0 18.8 26.6 40.1 105.2 97.5 334.7
12 20:00 10.6 84 8.2 8.1 4 7 1025.2 0 18.9 26.6 40.3 105.6 98.1 336.7
12 19:50 11 82 8.21 8.1 2 4 1024.6 0 18.9 26.5 40.1 105.1 97.6 335.3
12 19:40 11 82 8.21 8.1 4 7 1024.5 0 18.9 26.5 40.1 105.1 97.6 335.3
12 19:30 11.2 81 8.21 8.1 6 11 1024.7 0 18.9 26.5 40.0 104.9 97.4 334.5
12 19:20 11.3 80 8.16 8 6 7 1024.3 0 18.8 26.3 39.8 104.2 96.6 331.6
12 19:10 11.6 78 8.11 7.9 7 9 1024.1 0 18.6 26.1 39.4 103.2 95.5 327.9
12 19:00 11.5 79 8.16 8 2 7 1024.4 0 18.7 26.3 39.7 103.9 96.3 330.8
12 18:50 11.7 78 8.16 8 6 7 1023.9 0 18.7 26.2 39.5 103.6 96.0 329.8
12 18:40 12 76 8.1 7.9 6 7 1023.7 0 18.6 26.0 39.1 102.5 94.8 325.6
12 18:30 12.2 75 8.09 7.9 9 15 1024 0 18.6 25.9 39.0 102.2 94.5 324.4
12 18:20 12.2 74 7.99 7.7 11 15 1023.5 0 18.4 25.8 38.6 101.0 93.1 319.6
12 18:10 12.1 76 8.15 8 6 7 1023.4 0 18.7 26.0 39.3 102.9 95.4 327.5
12 18:00 12.4 74 8.09 7.9 7 9 1023.5 0 18.6 25.9 38.9 101.9 94.2 323.5
12 17:50 12.6 72 7.97 7.7 6 7 1023 0 18.3 25.6 38.3 100.3 92.3 317.0
12 17:40 12.7 71 7.9 7.6 9 11 1022.8 0 18.1 25.4 38.0 99.4 91.3 313.3
12 17:30 12.9 70 7.89 7.6 11 17 1023.1 0 18.1 25.4 37.8 99.0 90.9 312.1
12 17:20 13.1 69 7.87 7.6 7 11 1022.6 0 18.1 25.3 37.6 98.5 90.4 310.3
12 17:10 13.4 66 7.67 7.2 11 13 1022.4 0 17.6 24.9 36.7 96.0 87.4 300.0
12 17:00 13.6 64 7.53 7 11 15 1022.7 0 17.3 24.6 36.1 94.4 85.4 293.0
12 16:50 13.9 61 7.31 6.6 15 17 1022.1 0 16.8 24.1 35.1 91.7 82.3 281.9
12 16:40 14.1 60 7.28 6.4 15 20 1022 0 16.8 24.0 34.9 91.1 81.7 279.9
12 16:30 14.2 60 7.33 6.5 13 22 1022.3 0 16.9 24.1 35.0 91.6 82.2 281.8
12 16:20 14.4 58 7.17 6.3 13 19 1021.8 0 16.5 23.8 34.3 89.7 80.0 274.0
12 16:10 14.6 59 7.38 6.8 11 19 1021.8 0 16.9 24.1 35.0 91.6 82.4 282.5
12 16:00 14.7 58 7.3 6.7 11 17 1022.1 0 16.8 23.9 34.7 90.7 81.3 278.7
12 15:50 14.9 56 7.14 6.2 11 17 1021.6 0 16.4 23.6 34.0 88.8 79.1 270.9
12 15:40 15.1 54 6.97 5.9 19 20 1021.5 0 16.1 23.3 33.3 86.9 76.8 262.9
12 15:30 15.3 57 7.44 6.9 11 15 1021.8 0 17.0 24.0 34.9 91.4 82.4 282.6
12 15:20 15.2 56 7.27 6.5 11 13 1021.3 0 16.7 23.7 34.3 89.7 80.4 275.5
12 15:10 15.2 56 7.27 6.5 11 15 1021.2 0 16.7 23.7 34.3 89.7 80.4 275.4
12 15:00 14.9 58 7.39 6.7 17 30 1021.6 0 17.0 24.0 34.9 91.3 82.2 281.8
12 14:50 15.3 55 7.18 6.4 15 17 1021.1 0 16.5 23.5 33.9 88.7 79.2 271.2
12 14:40 15.2 54 7.01 6 13 20 1021.1 0 16.1 23.3 33.3 87.1 77.2 264.2
12 14:30 15.4 54 7.09 6.3 17 26 1021.4 0 16.3 23.4 33.6 87.7 78.0 267.0
12 14:20 15.2 55 7.14 6.3 17 19 1021.1 0 16.4 23.5 33.8 88.4 78.8 269.8
12 14:10 15.5 58 7.67 7.4 9 17 1021 0 17.5 24.2 35.7 93.4 85.0 291.8
12 14:00 15.3 56 7.31 6.7 17 28 1021.4 0 16.8 23.8 34.4 90.0 80.8 276.9
12 13:50 14.8 58 7.35 6.8 13 19 1021 0 16.9 23.9 34.8 91.0 81.8 280.3

Last Refresh: 13-Jul-2020 06:45:47

Most of the information presented on this site is sourced from the Bureau of Meteorology.  Copyright in all material sourced from the Bureau of Meteorology resides with the Commonwealth of Australia.